Airfield :
LOGIN :

Register | Disclaimer

   EN    FR    IT 

 










Legend :    VFR   Marginal VFR   IFR   Intensive IFR   Very Intensive IFR
Visi :
Ceiling :
>= 8 km
>= 3000ft
5 to 8 km
1000 to 3000 ft
1500m to 5 km
500 to 1000 ft
800 to 1500m
200 to 500 ft
< 800m
< 200 ft
Symbols :   Thunderstorms  Fog  Heavy snow  Heavy precipitations  Wind > 20 kt
SIGMETs :     Misc.  Thunderstorms  Icing  Turbulence  Mountain Waves  Volcanic Ashes







- Airport Elevation : 1161 ft
- IATA code : RJL


LELO - Logroño-Agoncillo

CURRENT METAR :
  • 190300Z AUTO 05007KT 9999 -RA BKN024/// 10/08 Q1006

EXPIRED METARs :
  • 190230Z AUTO 06006KT 030V090 9999 BKN024/// 10/08 Q1006
  • 190200Z AUTO 05005KT 010V090 9999 BKN028/// 09/08 Q1007
  • 190130Z AUTO 05004KT 020V100 9999 FEW010/// BKN028/// 09/08 Q1007
  • 190100Z AUTO 05004KT 010V100 9999 SCT008/// SCT013/// BKN028/// 09/08 Q1007
  • 190030Z AUTO 08007KT 020V120 6000 SCT010/// BKN014/// 09/08 Q1008

TAF TAF LELO
Valid from the 19 at 03:00 until the 19 at 12:00 UTC


190200Z 1903/1912 09009KT 9999 BKN020
PROB40
TEMPO 1903/1910 2000 BR
No reported NOTAMs for that airfield.
1 SIGMET reported for the Madrid FIR (LECM) :
 
Severe turbulence
LECM SIGMET 10 VALID 190100/190500 LEVA
LECM MADRID FIR/UIR SEV TURB FCST N OF LINE N4435 W00734 - N4241 W00003 FL210/320 MOV S NC=



MET'MAP, your aeronautical weather chart ! - Copyright ORBIFLY December 2007 - Disclaimer

ORBIFLY MET'MAP TEAM :

Programming & Development : Alexandra Zaïnal
Concept & Development : Baudouin d'Aumeries
Co-Development & Prog : Marc-Olivier Méhu
Technical & hardware support : Manuel Goepfert

Contact : metmap@orbifly.com




SOURCES & CREDITS :

   NOAA